Time;durP1;ratioP1;P1;durP2;ratioP2;P2;SDS_P1;SDS_P2;PMS_P1;PMS_P2;Temp;Humidity;BMP_temperature;BMP_pressure;BME280_temperature;BME280_humidity;BME280_pressure;Samples;Min_cycle;Max_cycle;Signal;HPM_P1;HPM_P2
2021/10/14 00:01:02;;;;;;;11.82;7.82;;;;;;;;;;6228903;28;20957;-74
2021/10/14 00:04:05;;;;;;;10.73;7.18;;;;;;;;;;6236790;28;20045;-69
2021/10/14 00:07:07;;;;;;;14.43;8.40;;;;;;;;;;6226376;28;20054;-69
2021/10/14 00:10:09;;;;;;;12.52;7.97;;;;;;;;;;6234399;28;20127;-73
2021/10/14 00:13:10;;;;;;;16.75;8.68;;;;;;;;;;6232927;28;20058;-68
2021/10/14 00:16:13;;;;;;;13.90;7.70;;;;;;;;;;6223240;28;20119;-68
2021/10/14 00:19:16;;;;;;;15.13;7.65;;;;;;;;;;6232797;28;20049;-68
2021/10/14 00:22:18;;;;;;;14.13;7.37;;;;;;;;;;6225836;28;20056;-69
2021/10/14 00:25:21;;;;;;;9.90;6.90;;;;;;;;;;6229380;28;20049;-69
2021/10/14 00:28:23;;;;;;;11.95;7.93;;;;;;;;;;6239869;28;20041;-68
2021/10/14 00:31:25;;;;;;;11.05;6.40;;;;;;;;;;6232817;28;20049;-69
2021/10/14 00:34:28;;;;;;;12.48;7.43;;;;;;;;;;6236423;28;20041;-69
2021/10/14 00:37:29;;;;;;;13.75;6.85;;;;;;;;;;6229475;28;20118;-69
2021/10/14 00:40:31;;;;;;;8.45;6.60;;;;;;;;;;6233858;28;20037;-69
2021/10/14 00:43:32;;;;;;;11.43;6.47;;;;;;;;;;6238453;28;20410;-69
2021/10/14 00:46:34;;;;;;;13.65;6.93;;;;;;;;;;6224467;28;20154;-69
2021/10/14 00:49:37;;;;;;;14.10;6.57;;;;;;;;;;6238796;28;20049;-69
2021/10/14 00:52:41;;;;;;;9.60;5.95;;;;;;;;;;6229086;28;20045;-68
2021/10/14 00:55:43;;;;;;;10.48;5.88;;;;;;;;;;6230709;28;20048;-69
2021/10/14 00:58:44;;;;;;;11.68;6.32;;;;;;;;;;6238818;28;20049;-70
2021/10/14 01:01:46;;;;;;;9.13;6.03;;;;;;;;;;6210590;28;20041;-72
2021/10/14 01:04:49;;;;;;;9.95;6.68;;;;;;;;;;6232497;28;20049;-68
2021/10/14 01:07:50;;;;;;;9.32;6.22;;;;;;;;;;6222885;28;20153;-69
2021/10/14 01:10:52;;;;;;;9.43;6.32;;;;;;;;;;6227387;28;20055;-69
2021/10/14 01:13:54;;;;;;;8.85;6.25;;;;;;;;;;6237710;28;20051;-73
2021/10/14 01:16:55;;;;;;;8.93;5.88;;;;;;;;;;6219671;28;20053;-69
2021/10/14 01:19:58;;;;;;;8.25;6.13;;;;;;;;;;6232122;28;20512;-72
2021/10/14 01:23:00;;;;;;;9.68;5.75;;;;;;;;;;6227176;28;20056;-69
2021/10/14 01:26:02;;;;;;;12.38;6.32;;;;;;;;;;6225988;28;20060;-69
2021/10/14 01:29:03;;;;;;;9.85;6.47;;;;;;;;;;6237954;28;20092;-69
2021/10/14 01:32:06;;;;;;;11.80;6.57;;;;;;;;;;6219746;28;20056;-69
2021/10/14 01:35:09;;;;;;;8.02;5.88;;;;;;;;;;6232550;28;20114;-73
2021/10/14 01:38:11;;;;;;;11.52;6.03;;;;;;;;;;6232562;28;20069;-69
2021/10/14 01:41:12;;;;;;;9.52;6.05;;;;;;;;;;6228365;28;20150;-69
2021/10/14 01:44:15;;;;;;;14.38;6.30;;;;;;;;;;6242041;28;20176;-69
2021/10/14 01:47:16;;;;;;;9.32;6.95;;;;;;;;;;6221546;28;20448;-69
2021/10/14 01:50:19;;;;;;;11.95;6.60;;;;;;;;;;6230211;28;20723;-73
2021/10/14 01:53:21;;;;;;;9.52;6.97;;;;;;;;;;6236135;28;20095;-69
2021/10/14 01:56:22;;;;;;;10.45;6.60;;;;;;;;;;6228350;28;20042;-69
2021/10/14 01:59:24;;;;;;;9.25;6.60;;;;;;;;;;6238634;28;20046;-71
2021/10/14 02:02:26;;;;;;;10.63;6.85;;;;;;;;;;6222773;28;20140;-71
2021/10/14 02:05:29;;;;;;;9.57;6.88;;;;;;;;;;6227178;28;20211;-69
2021/10/14 02:08:30;;;;;;;14.68;7.13;;;;;;;;;;6236437;28;20048;-69
2021/10/14 02:11:32;;;;;;;10.95;6.82;;;;;;;;;;6227431;28;20131;-69
2021/10/14 02:14:33;;;;;;;11.57;6.25;;;;;;;;;;6237261;28;20057;-70
2021/10/14 02:17:35;;;;;;;11.73;7.53;;;;;;;;;;6222325;28;20546;-69
2021/10/14 02:20:38;;;;;;;18.83;6.95;;;;;;;;;;6228524;28;20366;-69
2021/10/14 02:23:40;;;;;;;12.10;6.60;;;;;;;;;;6236652;28;20076;-72
2021/10/14 02:26:42;;;;;;;11.95;6.90;;;;;;;;;;6227443;28;20049;-69
2021/10/14 02:29:43;;;;;;;8.95;6.63;;;;;;;;;;6241417;28;20076;-70
2021/10/14 02:32:45;;;;;;;12.32;7.22;;;;;;;;;;6202566;28;20054;-69
2021/10/14 02:35:48;;;;;;;12.43;6.78;;;;;;;;;;6217132;28;20049;-69
2021/10/14 02:38:50;;;;;;;11.73;6.38;;;;;;;;;;6236121;28;20173;-69
2021/10/14 02:41:52;;;;;;;10.25;6.65;;;;;;;;;;6225590;28;20042;-67
2021/10/14 02:44:54;;;;;;;12.18;6.90;;;;;;;;;;6240642;28;20053;-67
2021/10/14 02:47:56;;;;;;;11.85;7.05;;;;;;;;;;6221539;28;20489;-68
2021/10/14 02:50:59;;;;;;;12.00;7.28;;;;;;;;;;6223907;28;20045;-69
2021/10/14 02:54:00;;;;;;;10.70;6.28;;;;;;;;;;6227599;28;20571;-72
2021/10/14 02:57:02;;;;;;;11.07;6.72;;;;;;;;;;6227272;28;20086;-74
2021/10/14 03:00:06;;;;;;;13.25;6.82;;;;;;;;;;6233948;28;20077;-69
2021/10/14 03:03:07;;;;;;;11.68;7.20;;;;;;;;;;6224757;28;20172;-68
2021/10/14 03:06:10;;;;;;;11.50;6.57;;;;;;;;;;6223738;28;20053;-70
2021/10/14 03:09:12;;;;;;;9.93;6.28;;;;;;;;;;6229091;28;20057;-70
2021/10/14 03:12:13;;;;;;;9.23;6.15;;;;;;;;;;6227656;28;20132;-69
2021/10/14 03:15:15;;;;;;;11.68;7.07;;;;;;;;;;6226624;28;20049;-75
2021/10/14 03:18:17;;;;;;;13.13;6.38;;;;;;;;;;6226881;28;20163;-69
2021/10/14 03:21:20;;;;;;;12.55;6.80;;;;;;;;;;6225508;28;20042;-69
2021/10/14 03:24:21;;;;;;;9.32;6.40;;;;;;;;;;6232212;28;20094;-68
2021/10/14 03:27:23;;;;;;;15.27;6.05;;;;;;;;;;6226290;28;20053;-69
2021/10/14 03:30:24;;;;;;;10.60;5.95;;;;;;;;;;6221176;28;20053;-70
2021/10/14 03:33:26;;;;;;;13.52;7.30;;;;;;;;;;6235374;28;20509;-69
2021/10/14 03:36:29;;;;;;;10.73;6.18;;;;;;;;;;6227785;28;20052;-68
2021/10/14 03:39:31;;;;;;;9.60;6.50;;;;;;;;;;6236764;28;20693;-69
2021/10/14 03:42:32;;;;;;;13.25;7.07;;;;;;;;;;6229555;28;20082;-69
2021/10/14 03:45:34;;;;;;;11.23;6.10;;;;;;;;;;6226842;28;20140;-69
2021/10/14 03:48:36;;;;;;;8.55;6.38;;;;;;;;;;6237044;28;20115;-69
2021/10/14 03:51:38;;;;;;;10.23;6.07;;;;;;;;;;6233014;28;20059;-70
2021/10/14 03:54:40;;;;;;;9.95;6.28;;;;;;;;;;6244374;28;20168;-69
2021/10/14 03:57:41;;;;;;;11.13;6.15;;;;;;;;;;6233566;28;20041;-69
2021/10/14 04:00:43;;;;;;;10.18;6.70;;;;;;;;;;6226784;28;20052;-74
2021/10/14 04:03:45;;;;;;;10.75;6.93;;;;;;;;;;6238129;28;20042;-75
2021/10/14 04:06:48;;;;;;;14.32;7.68;;;;;;;;;;6230268;28;20693;-69
2021/10/14 04:09:49;;;;;;;12.63;7.57;;;;;;;;;;6239454;28;20489;-68
2021/10/14 04:12:51;;;;;;;10.43;7.30;;;;;;;;;;6233680;28;20052;-68
2021/10/14 04:15:52;;;;;;;12.45;7.75;;;;;;;;;;6218632;28;20104;-69
2021/10/14 04:18:54;;;;;;;16.25;7.80;;;;;;;;;;6240584;28;20073;-70
2021/10/14 04:21:58;;;;;;;15.77;8.38;;;;;;;;;;6218349;28;20046;-67
2021/10/14 04:24:59;;;;;;;12.13;7.82;;;;;;;;;;6237556;28;20046;-69
2021/10/14 04:28:01;;;;;;;12.27;7.03;;;;;;;;;;6236349;28;20074;-74
2021/10/14 04:31:03;;;;;;;12.20;8.07;;;;;;;;;;6231217;28;20041;-69
2021/10/14 04:34:06;;;;;;;13.60;7.63;;;;;;;;;;6236789;28;20041;-69
2021/10/14 04:37:10;;;;;;;11.07;7.38;;;;;;;;;;6229130;28;20041;-69
2021/10/14 04:40:12;;;;;;;9.55;7.07;;;;;;;;;;6234578;28;20493;-75
2021/10/14 04:43:14;;;;;;;9.48;6.32;;;;;;;;;;6237760;28;20049;-70
2021/10/14 04:46:15;;;;;;;10.95;6.90;;;;;;;;;;6232420;28;20060;-70
2021/10/14 04:49:17;;;;;;;9.65;7.05;;;;;;;;;;6242431;28;20073;-69
2021/10/14 04:52:20;;;;;;;11.70;6.45;;;;;;;;;;6234003;28;20054;-70
2021/10/14 04:55:22;;;;;;;9.45;5.70;;;;;;;;;;6238150;28;20147;-69
2021/10/14 04:58:24;;;;;;;10.77;6.10;;;;;;;;;;6249573;28;20095;-70
2021/10/14 05:01:25;;;;;;;9.93;6.80;;;;;;;;;;6231327;28;20041;-69
2021/10/14 05:04:27;;;;;;;9.13;6.38;;;;;;;;;;6241893;28;20049;-68
2021/10/14 05:07:30;;;;;;;11.18;5.88;;;;;;;;;;6233851;28;20075;-68
2021/10/14 05:10:32;;;;;;;10.02;5.88;;;;;;;;;;6237042;28;20120;-69
2021/10/14 05:13:33;;;;;;;11.10;5.63;;;;;;;;;;6247934;28;20045;-68
2021/10/14 05:16:35;;;;;;;10.23;5.95;;;;;;;;;;6232285;28;20047;-68
2021/10/14 05:19:36;;;;;;;9.15;5.47;;;;;;;;;;6246140;28;20128;-69
2021/10/14 05:22:40;;;;;;;12.98;6.28;;;;;;;;;;6222149;28;20057;-68
2021/10/14 05:25:41;;;;;;;8.83;5.83;;;;;;;;;;6228823;28;20080;-69
2021/10/14 05:28:43;;;;;;;10.45;5.82;;;;;;;;;;6247238;28;20549;-69
2021/10/14 05:31:44;;;;;;;9.40;5.45;;;;;;;;;;6229483;28;20183;-74
2021/10/14 05:34:46;;;;;;;8.55;5.28;;;;;;;;;;6240238;28;20123;-69
2021/10/14 05:37:49;;;;;;;9.40;5.55;;;;;;;;;;6222422;28;20514;-71
2021/10/14 05:40:50;;;;;;;8.68;5.60;;;;;;;;;;6222231;28;20049;-69
2021/10/14 05:43:52;;;;;;;8.98;6.28;;;;;;;;;;6239846;28;20049;-68
2021/10/14 05:46:54;;;;;;;7.82;5.20;;;;;;;;;;6231050;28;20053;-69
2021/10/14 05:49:55;;;;;;;10.13;5.32;;;;;;;;;;6242392;28;20136;-73
2021/10/14 05:52:58;;;;;;;8.90;5.05;;;;;;;;;;6235195;28;20160;-68
2021/10/14 05:56:00;;;;;;;8.55;5.00;;;;;;;;;;6235271;28;20374;-69
2021/10/14 05:59:02;;;;;;;10.50;5.63;;;;;;;;;;6246958;28;20045;-69
2021/10/14 06:02:03;;;;;;;9.25;5.05;;;;;;;;;;6223780;28;20098;-68
2021/10/14 06:05:05;;;;;;;7.47;4.82;;;;;;;;;;6237503;28;20037;-77
2021/10/14 06:08:08;;;;;;;10.05;5.10;;;;;;;;;;6228683;28;20150;-69
2021/10/14 06:11:10;;;;;;;14.95;4.80;;;;;;;;;;6229898;28;20121;-69
2021/10/14 06:14:11;;;;;;;13.30;4.90;;;;;;;;;;6238982;28;20095;-70
2021/10/14 06:17:13;;;;;;;8.02;3.92;;;;;;;;;;6222657;28;20476;-76
2021/10/14 06:20:14;;;;;;;9.38;4.50;;;;;;;;;;6228956;28;20068;-75
2021/10/14 06:23:17;;;;;;;8.02;4.38;;;;;;;;;;6234511;28;20171;-69
2021/10/14 06:26:20;;;;;;;10.27;5.43;;;;;;;;;;6228841;28;20042;-68
2021/10/14 06:29:21;;;;;;;8.07;5.30;;;;;;;;;;6235666;28;20503;-69
2021/10/14 06:32:23;;;;;;;12.75;6.22;;;;;;;;;;6221514;28;20593;-69
2021/10/14 06:35:25;;;;;;;12.75;5.43;;;;;;;;;;6224748;28;20138;-68
2021/10/14 06:38:28;;;;;;;11.05;4.95;;;;;;;;;;6234511;28;20175;-69
2021/10/14 06:41:29;;;;;;;8.02;5.00;;;;;;;;;;6225529;28;20053;-68
2021/10/14 06:44:31;;;;;;;13.73;4.53;;;;;;;;;;6239324;28;20049;-70
2021/10/14 06:47:32;;;;;;;13.13;4.80;;;;;;;;;;6219085;28;21982;-69
2021/10/14 06:50:34;;;;;;;15.35;5.63;;;;;;;;;;6222163;28;20057;-70
2021/10/14 06:53:37;;;;;;;9.52;4.47;;;;;;;;;;6235520;28;20057;-70
2021/10/14 06:56:39;;;;;;;11.55;4.35;;;;;;;;;;6227277;28;20557;-69
2021/10/14 06:59:40;;;;;;;13.48;4.53;;;;;;;;;;6237008;28;20128;-72
2021/10/14 07:02:42;;;;;;;9.95;4.75;;;;;;;;;;6222497;28;20263;-70
2021/10/14 07:05:43;;;;;;;9.32;4.50;;;;;;;;;;6227257;28;20049;-69
2021/10/14 07:08:46;;;;;;;7.93;5.05;;;;;;;;;;6241483;28;20045;-71
2021/10/14 07:11:53;;;;;;;10.55;5.05;;;;;;;;;;6228794;28;20494;-69
2021/10/14 07:14:55;;;;;;;11.57;4.78;;;;;;;;;;6240699;28;20105;-68
2021/10/14 07:17:57;;;;;;;10.77;5.43;;;;;;;;;;6224024;28;20056;-69
2021/10/14 07:20:58;;;;;;;9.63;4.97;;;;;;;;;;6230015;28;20752;-68
2021/10/14 07:24:01;;;;;;;10.30;5.90;;;;;;;;;;6234162;28;20041;-72
2021/10/14 07:27:03;;;;;;;7.22;5.50;;;;;;;;;;6225508;28;20131;-69
2021/10/14 07:30:06;;;;;;;13.20;6.22;;;;;;;;;;6234773;28;20135;-75
2021/10/14 07:33:08;;;;;;;11.10;6.47;;;;;;;;;;6227142;28;20659;-68
2021/10/14 07:36:09;;;;;;;13.50;6.35;;;;;;;;;;6226054;28;20179;-69
2021/10/14 07:39:12;;;;;;;9.98;5.95;;;;;;;;;;6243767;28;20499;-70
2021/10/14 07:42:14;;;;;;;12.23;7.13;;;;;;;;;;6227065;28;20060;-69
2021/10/14 07:45:16;;;;;;;12.50;6.70;;;;;;;;;;6233254;28;20384;-75
2021/10/14 07:48:17;;;;;;;14.00;6.75;;;;;;;;;;6232379;28;20519;-70
2021/10/14 07:51:19;;;;;;;13.60;6.85;;;;;;;;;;6226659;28;20481;-68
2021/10/14 07:54:22;;;;;;;9.55;6.63;;;;;;;;;;6235653;28;20050;-68
2021/10/14 07:57:24;;;;;;;15.80;6.85;;;;;;;;;;6230758;28;20050;-69
2021/10/14 08:00:25;;;;;;;12.75;6.45;;;;;;;;;;6235059;28;20055;-70
2021/10/14 08:03:27;;;;;;;11.45;6.45;;;;;;;;;;6234953;28;20057;-69
2021/10/14 08:06:29;;;;;;;10.50;6.78;;;;;;;;;;6233691;28;20041;-69
2021/10/14 08:09:31;;;;;;;16.77;8.02;;;;;;;;;;6238960;28;20060;-69
2021/10/14 08:12:33;;;;;;;15.90;8.40;;;;;;;;;;6233111;28;20046;-69
2021/10/14 08:15:35;;;;;;;14.13;8.45;;;;;;;;;;6232312;28;20045;-70
2021/10/14 08:18:36;;;;;;;15.80;9.23;;;;;;;;;;6239628;28;20048;-70
2021/10/14 08:21:38;;;;;;;13.38;8.35;;;;;;;;;;6233216;28;20192;-70
2021/10/14 08:24:41;;;;;;;15.40;8.55;;;;;;;;;;6239550;28;20084;-69
2021/10/14 08:27:44;;;;;;;21.20;8.95;;;;;;;;;;6230511;28;20045;-70
2021/10/14 08:30:46;;;;;;;18.37;8.57;;;;;;;;;;6230369;28;20103;-69
2021/10/14 08:33:49;;;;;;;20.30;9.55;;;;;;;;;;6239019;28;20440;-74
2021/10/14 08:36:50;;;;;;;14.63;9.02;;;;;;;;;;6225422;28;20065;-70
2021/10/14 08:39:54;;;;;;;11.80;8.68;;;;;;;;;;6238948;28;20143;-69
2021/10/14 08:43:00;;;;;;;12.88;8.50;;;;;;;;;;6231290;28;20055;-69
2021/10/14 08:46:03;;;;;;;17.45;8.82;;;;;;;;;;6225637;28;20103;-75
2021/10/14 08:49:08;;;;;;;11.95;9.23;;;;;;;;;;6225643;28;20455;-69
2021/10/14 08:52:09;;;;;;;13.50;9.13;;;;;;;;;;6231151;28;20060;-70
2021/10/14 08:55:12;;;;;;;13.15;8.65;;;;;;;;;;6237803;28;20064;-73
2021/10/14 08:58:15;;;;;;;13.15;7.88;;;;;;;;;;6238029;28;20179;-69
2021/10/14 09:01:19;;;;;;;12.47;7.43;;;;;;;;;;6227147;28;20425;-69
2021/10/14 09:04:22;;;;;;;11.32;7.22;;;;;;;;;;6240763;28;20381;-69
2021/10/14 09:07:25;;;;;;;10.75;6.97;;;;;;;;;;6223899;28;20501;-71
2021/10/14 09:10:32;;;;;;;11.10;7.57;;;;;;;;;;6231465;28;20112;-69
2021/10/14 09:13:34;;;;;;;13.05;7.40;;;;;;;;;;6240150;28;20052;-70
2021/10/14 09:16:36;;;;;;;8.77;6.95;;;;;;;;;;6221528;28;21179;-69
2021/10/14 09:19:39;;;;;;;13.03;7.30;;;;;;;;;;6233701;28;20471;-69
2021/10/14 09:22:52;;;;;;;8.23;6.15;;;;;;;;;;6224948;28;20467;-69
2021/10/14 09:25:55;;;;;;;7.55;4.80;;;;;;;;;;6227930;28;20045;-69
2021/10/14 09:29:11;;;;;;;6.68;4.68;;;;;;;;;;6239033;28;20188;-69
2021/10/14 09:32:15;;;;;;;8.18;5.93;;;;;;;;;;6213346;28;20049;-69
2021/10/14 09:35:24;;;;;;;8.77;5.65;;;;;;;;;;6229990;28;20064;-69
2021/10/14 09:38:32;;;;;;;8.05;5.75;;;;;;;;;;6236128;28;20056;-69
2021/10/14 09:41:39;;;;;;;7.57;4.95;;;;;;;;;;6226524;28;20359;-69
2021/10/14 09:44:49;;;;;;;8.82;5.50;;;;;;;;;;6238048;28;20595;-69
2021/10/14 09:48:08;;;;;;;7.75;5.03;;;;;;;;;;6218568;28;20091;-69
2021/10/14 09:51:10;;;;;;;7.43;4.90;;;;;;;;;;6225071;28;20057;-69
2021/10/14 09:54:12;;;;;;;6.43;4.75;;;;;;;;;;6241611;28;20053;-69
2021/10/14 09:57:15;;;;;;;7.93;4.75;;;;;;;;;;6234414;28;20053;-69
2021/10/14 10:00:18;;;;;;;10.75;5.38;;;;;;;;;;6234399;28;20045;-72
2021/10/14 10:03:21;;;;;;;7.20;5.18;;;;;;;;;;6230562;28;20049;-72
2021/10/14 10:06:24;;;;;;;6.22;4.40;;;;;;;;;;6232260;28;20049;-69
2021/10/14 10:09:25;;;;;;;;;;;;;;;;;;6238999;28;20177;-69
2021/10/14 10:12:28;;;;;;;8.93;4.90;;;;;;;;;;6228781;28;20466;-69
2021/10/14 10:15:40;;;;;;;;;;;;;;;;;;6222885;28;20144;-72
2021/10/14 10:18:42;;;;;;;6.80;5.30;;;;;;;;;;6226287;28;20043;-69
2021/10/14 10:21:44;;;;;;;7.47;5.15;;;;;;;;;;6230933;28;20045;-69
2021/10/14 10:24:46;;;;;;;8.73;4.17;;;;;;;;;;6240613;28;20132;-71
2021/10/14 10:27:49;;;;;;;4.88;3.45;;;;;;;;;;6231470;28;20421;-69
2021/10/14 10:30:53;;;;;;;;;;;;;;;;;;6225797;28;20154;-70
2021/10/14 10:33:58;;;;;;;;;;;;;;;;;;6236241;28;20024;-69
2021/10/14 10:37:11;;;;;;;4.47;3.25;;;;;;;;;;6229313;28;20007;-70
2021/10/14 10:40:16;;;;;;;5.93;3.87;;;;;;;;;;6227302;28;20045;-73
2021/10/14 10:43:23;;;;;;;6.53;4.32;;;;;;;;;;6234271;28;20467;-69
2021/10/14 10:46:28;;;;;;;7.40;3.83;;;;;;;;;;6226291;28;20061;-70
2021/10/14 10:49:30;;;;;;;5.47;3.13;;;;;;;;;;6225735;28;20054;-69
2021/10/14 10:52:32;;;;;;;6.28;3.00;;;;;;;;;;6224684;28;20168;-69
2021/10/14 10:55:37;;;;;;;4.50;3.17;;;;;;;;;;6221114;28;20045;-69
2021/10/14 10:58:45;;;;;;;4.05;2.42;;;;;;;;;;6239210;28;20132;-70
2021/10/14 11:01:47;;;;;;;4.88;3.13;;;;;;;;;;6218716;28;20050;-68
2021/10/14 11:04:48;;;;;;;4.55;3.65;;;;;;;;;;6233144;28;20203;-69
2021/10/14 11:08:05;;;;;;;10.00;4.28;;;;;;;;;;6229103;28;20049;-71
2021/10/14 11:11:09;;;;;;;5.28;3.33;;;;;;;;;;6225955;28;20500;-69
2021/10/14 11:14:12;;;;;;;22.60;20.23;;;;;;;;;;6234870;28;20045;-68
2021/10/14 11:17:14;;;;;;;25.88;17.67;;;;;;;;;;6219985;28;20130;-70
2021/10/14 11:20:15;;;;;;;15.75;12.18;;;;;;;;;;6223057;28;20395;-70
2021/10/14 11:23:17;;;;;;;3.97;2.90;;;;;;;;;;6237427;28;20136;-68
2021/10/14 11:26:21;;;;;;;5.57;3.10;;;;;;;;;;6228735;28;20143;-67
2021/10/14 11:29:27;;;;;;;3.20;2.50;;;;;;;;;;6235965;28;20140;-68
2021/10/14 11:32:43;;;;;;;4.15;2.80;;;;;;;;;;6218684;28;20061;-67
2021/10/14 11:35:57;;;;;;;3.70;3.08;;;;;;;;;;6222789;28;20145;-67
2021/10/14 11:39:01;;;;;;;5.65;2.97;;;;;;;;;;6237425;28;20111;-68
2021/10/14 11:42:05;;;;;;;4.22;3.00;;;;;;;;;;6228130;28;20139;-68
2021/10/14 11:45:09;;;;;;;4.47;2.70;;;;;;;;;;6235618;28;20050;-71
2021/10/14 11:48:28;;;;;;;5.10;3.00;;;;;;;;;;6237927;28;20115;-68
2021/10/14 11:51:30;;;;;;;4.72;2.80;;;;;;;;;;6226972;28;20124;-66
2021/10/14 11:54:35;;;;;;;3.38;2.83;;;;;;;;;;6239240;28;20494;-68
2021/10/14 11:57:38;;;;;;;3.72;2.95;;;;;;;;;;6227026;28;20120;-68
2021/10/14 12:00:41;;;;;;;6.30;2.90;;;;;;;;;;6219242;28;20049;-68
2021/10/14 12:03:43;;;;;;;4.82;2.85;;;;;;;;;;6227092;28;20045;-68
2021/10/14 12:06:45;;;;;;;5.68;3.10;;;;;;;;;;6230538;28;20136;-67
2021/10/14 12:09:47;;;;;;;3.90;2.65;;;;;;;;;;6235030;28;20061;-66
2021/10/14 12:13:01;;;;;;;5.13;3.03;;;;;;;;;;6220756;28;20171;-68
2021/10/14 12:16:09;;;;;;;6.90;3.00;;;;;;;;;;6214669;28;20057;-67
2021/10/14 12:19:13;;;;;;;4.13;2.80;;;;;;;;;;6231265;28;20052;-67
2021/10/14 12:22:16;;;;;;;8.32;3.17;;;;;;;;;;6226361;28;20555;-68
2021/10/14 12:25:23;;;;;;;4.15;2.88;;;;;;;;;;6225124;28;20279;-68
2021/10/14 12:28:24;;;;;;;7.43;3.97;;;;;;;;;;6238422;28;20068;-70
2021/10/14 12:31:32;;;;;;;6.05;3.75;;;;;;;;;;6221245;28;20102;-68
2021/10/14 12:34:45;;;;;;;6.07;3.58;;;;;;;;;;6236293;28;20041;-68
2021/10/14 12:37:47;;;;;;;5.53;3.22;;;;;;;;;;6223119;28;20053;-68
2021/10/14 12:40:59;;;;;;;4.90;3.33;;;;;;;;;;6225046;28;20038;-68
2021/10/14 12:44:08;;;;;;;6.43;3.33;;;;;;;;;;6240072;28;20049;-69
2021/10/14 12:47:32;;;;;;;5.43;3.03;;;;;;;;;;6226544;28;20124;-68
2021/10/14 12:50:55;;;;;;;3.95;2.70;;;;;;;;;;6225002;28;20482;-68
2021/10/14 12:53:59;;;;;;;5.03;3.28;;;;;;;;;;6241445;28;20082;-68
2021/10/14 12:57:01;;;;;;;6.00;3.60;;;;;;;;;;6228482;28;20086;-68
2021/10/14 13:00:06;;;;;;;4.60;3.20;;;;;;;;;;6229771;28;20038;-68
2021/10/14 13:03:09;;;;;;;5.38;3.65;;;;;;;;;;6224608;28;20428;-68
2021/10/14 13:06:11;;;;;;;4.15;3.60;;;;;;;;;;6231146;28;20163;-69
2021/10/14 13:09:12;;;;;;;5.40;3.13;;;;;;;;;;6230777;28;20137;-67
2021/10/14 13:12:14;;;;;;;6.28;3.50;;;;;;;;;;6228075;28;20145;-70
2021/10/14 13:15:16;;;;;;;5.53;3.33;;;;;;;;;;6232558;28;20071;-72
2021/10/14 13:18:19;;;;;;;5.18;3.15;;;;;;;;;;6230970;28;20052;-72
2021/10/14 13:21:22;;;;;;;3.63;2.80;;;;;;;;;;6229198;28;20479;-69
2021/10/14 13:24:24;;;;;;;;;;;;;;;;;;6240998;28;20207;-69
2021/10/14 13:27:25;;;;;;;5.45;3.42;;;;;;;;;;6228167;28;19925;-68
2021/10/14 13:30:27;;;;;;;5.57;3.25;;;;;;;;;;6229545;28;20095;-69
2021/10/14 13:33:31;;;;;;;6.50;3.40;;;;;;;;;;6234708;28;20053;-68
2021/10/14 13:36:33;;;;;;;4.07;3.25;;;;;;;;;;6225860;28;20467;-68
2021/10/14 13:39:34;;;;;;;5.78;3.40;;;;;;;;;;6237496;28;20539;-68
2021/10/14 13:42:39;;;;;;;4.32;2.95;;;;;;;;;;6225106;28;20069;-69
2021/10/14 13:45:40;;;;;;;6.13;3.45;;;;;;;;;;6230002;28;20046;-67
2021/10/14 13:48:43;;;;;;;4.50;4.10;;;;;;;;;;6235154;28;20188;-66
2021/10/14 13:51:45;;;;;;;5.05;3.38;;;;;;;;;;6228012;28;20038;-69
2021/10/14 13:54:46;;;;;;;6.15;4.10;;;;;;;;;;6243975;28;20616;-67
2021/10/14 13:57:48;;;;;;;4.15;3.35;;;;;;;;;;6228744;28;20049;-68
2021/10/14 14:00:50;;;;;;;7.20;3.47;;;;;;;;;;6228356;28;20052;-68
2021/10/14 14:03:53;;;;;;;4.25;3.45;;;;;;;;;;6235932;28;20131;-71
2021/10/14 14:06:55;;;;;;;4.63;3.15;;;;;;;;;;6236956;28;20057;-67
2021/10/14 14:09:56;;;;;;;6.63;3.80;;;;;;;;;;6244293;28;20063;-69
2021/10/14 14:13:00;;;;;;;5.80;3.38;;;;;;;;;;6228614;28;20098;-69
2021/10/14 14:16:02;;;;;;;4.10;3.50;;;;;;;;;;6226383;28;20049;-73
2021/10/14 14:19:05;;;;;;;6.93;3.22;;;;;;;;;;6238217;28;20136;-68
2021/10/14 14:22:10;;;;;;;;;;;;;;;;;;6226488;28;20072;-69
2021/10/14 14:25:11;;;;;;;4.72;3.40;;;;;;;;;;6233875;28;19931;-71
2021/10/14 14:28:13;;;;;;;11.90;3.70;;;;;;;;;;6226670;28;20165;-72
2021/10/14 14:31:15;;;;;;;6.43;3.38;;;;;;;;;;6220406;28;20171;-71
2021/10/14 14:34:18;;;;;;;7.47;3.13;;;;;;;;;;6229121;28;20061;-69
2021/10/14 14:37:19;;;;;;;;;;;;;;;;;;6222789;28;20583;-75
2021/10/14 14:40:22;;;;;;;4.65;3.58;;;;;;;;;;6225343;28;20394;-75
2021/10/14 14:43:23;;;;;;;5.82;3.40;;;;;;;;;;6231426;28;20363;-70
2021/10/14 14:46:28;;;;;;;44.70;33.78;;;;;;;;;;6226990;28;20057;-72
2021/10/14 14:49:30;;;;;;;;;;;;;;;;;;6235518;28;20053;-68
2021/10/14 14:52:32;;;;;;;19.58;12.75;;;;;;;;;;6224949;28;20055;-72
2021/10/14 14:55:34;;;;;;;32.22;25.25;;;;;;;;;;6228340;28;20044;-69
2021/10/14 14:58:38;;;;;;;30.23;24.83;;;;;;;;;;6239349;28;20049;-74
2021/10/14 15:01:41;;;;;;;9.95;5.28;;;;;;;;;;6221084;28;20092;-72
2021/10/14 15:04:45;;;;;;;5.75;3.63;;;;;;;;;;6237613;28;20056;-69
2021/10/14 15:07:46;;;;;;;4.43;3.45;;;;;;;;;;6228367;28;20052;-71
2021/10/14 15:10:48;;;;;;;4.28;3.40;;;;;;;;;;6219304;28;20491;-71
2021/10/14 15:13:51;;;;;;;5.70;3.60;;;;;;;;;;6231410;28;20184;-71
2021/10/14 15:16:52;;;;;;;;;;;;;;;;;;6216631;28;20053;-71
2021/10/14 15:19:55;;;;;;;6.28;3.35;;;;;;;;;;6230361;28;19928;-72
2021/10/14 15:22:57;;;;;;;5.45;3.55;;;;;;;;;;6223410;28;20137;-71
2021/10/14 15:25:58;;;;;;;4.80;3.80;;;;;;;;;;6225329;28;20180;-71
2021/10/14 15:29:02;;;;;;;4.68;3.78;;;;;;;;;;6234045;28;20053;-71
2021/10/14 15:32:03;;;;;;;;;;;;;;;;;;6212454;28;20053;-70
2021/10/14 15:35:07;;;;;;;6.50;3.85;;;;;;;;;;6234662;28;19925;-73
2021/10/14 15:38:18;;;;;;;5.43;3.67;;;;;;;;;;6231201;28;20053;-70
2021/10/14 15:41:20;;;;;;;4.45;3.38;;;;;;;;;;6223698;28;20049;-73
2021/10/14 15:44:21;;;;;;;5.88;3.22;;;;;;;;;;6240176;28;20055;-70
2021/10/14 15:47:24;;;;;;;7.28;3.50;;;;;;;;;;6220955;28;20136;-71
2021/10/14 15:50:26;;;;;;;6.17;3.93;;;;;;;;;;6226203;28;20080;-71
2021/10/14 15:53:28;;;;;;;6.55;3.97;;;;;;;;;;6230737;28;20144;-71
2021/10/14 15:56:30;;;;;;;6.45;4.05;;;;;;;;;;6232045;28;20038;-71
2021/10/14 15:59:31;;;;;;;5.97;3.90;;;;;;;;;;6239800;28;20065;-71
2021/10/14 16:02:33;;;;;;;8.07;4.60;;;;;;;;;;6221040;28;20053;-71
2021/10/14 16:05:36;;;;;;;9.13;4.50;;;;;;;;;;6205846;28;20119;-71
2021/10/14 16:08:38;;;;;;;4.95;3.92;;;;;;;;;;6228199;28;20494;-71
2021/10/14 16:11:40;;;;;;;5.15;4.22;;;;;;;;;;6218371;28;20132;-71
2021/10/14 16:14:41;;;;;;;7.03;4.47;;;;;;;;;;6229777;28;20045;-71
2021/10/14 16:17:43;;;;;;;6.95;4.30;;;;;;;;;;6211021;28;20271;-71
2021/10/14 16:20:46;;;;;;;9.07;4.40;;;;;;;;;;6226625;28;20048;-70
2021/10/14 16:23:48;;;;;;;5.47;4.22;;;;;;;;;;6235758;28;20057;-66
2021/10/14 16:26:52;;;;;;;8.38;4.72;;;;;;;;;;6232864;28;20109;-67
2021/10/14 16:29:54;;;;;;;7.93;3.97;;;;;;;;;;6240880;28;20053;-69
2021/10/14 16:33:18;;;;;;;8.37;4.40;;;;;;;;;;6221267;28;20041;-72
2021/10/14 16:36:21;;;;;;;6.90;3.80;;;;;;;;;;6230123;28;20467;-68
2021/10/14 16:39:23;;;;;;;7.43;4.40;;;;;;;;;;6240412;28;20043;-68
2021/10/14 16:42:25;;;;;;;9.77;4.88;;;;;;;;;;6229652;28;20497;-68
2021/10/14 16:45:27;;;;;;;10.32;5.57;;;;;;;;;;6231517;28;20296;-66
2021/10/14 16:48:29;;;;;;;31.85;19.05;;;;;;;;;;6228962;28;20057;-69
2021/10/14 16:51:32;;;;;;;116.50;72.90;;;;;;;;;;6230194;28;20053;-70
2021/10/14 16:54:34;;;;;;;117.88;70.00;;;;;;;;;;6239282;28;20379;-70
2021/10/14 16:57:36;;;;;;;86.47;57.58;;;;;;;;;;6230499;28;20173;-69
2021/10/14 17:00:37;;;;;;;45.03;26.65;;;;;;;;;;6223338;28;20516;-70
2021/10/14 17:03:39;;;;;;;18.92;10.00;;;;;;;;;;6233471;28;21022;-70
2021/10/14 17:06:42;;;;;;;8.23;5.57;;;;;;;;;;6228557;28;20073;-69
2021/10/14 17:09:46;;;;;;;8.50;5.35;;;;;;;;;;6243467;28;20076;-68
2021/10/14 17:12:47;;;;;;;;;;;;;;;;;;6232995;28;20271;-68
2021/10/14 17:15:49;;;;;;;10.57;5.40;;;;;;;;;;6228795;28;19921;-71
2021/10/14 17:18:54;;;;;;;9.95;5.75;;;;;;;;;;6235638;28;20156;-71
2021/10/14 17:22:19;;;;;;;11.05;5.93;;;;;;;;;;6231285;28;20053;-69
2021/10/14 17:35:39;;;;;;;46.03;34.47;;;;;;;;;;6225159;28;20053;-68
2021/10/14 17:38:44;;;;;;;68.25;46.63;;;;;;;;;;6246108;28;20042;-68
2021/10/14 17:41:46;;;;;;;15.02;9.70;;;;;;;;;;6231270;28;20175;-73
2021/10/14 17:44:49;;;;;;;11.20;6.30;;;;;;;;;;6239298;28;20111;-69
2021/10/14 17:47:50;;;;;;;11.15;6.35;;;;;;;;;;6226867;28;20052;-70
2021/10/14 17:50:52;;;;;;;12.38;5.95;;;;;;;;;;6227670;28;20076;-73
2021/10/14 17:53:55;;;;;;;11.70;6.65;;;;;;;;;;6239137;28;20721;-67
2021/10/14 17:56:57;;;;;;;13.33;7.60;;;;;;;;;;6226260;28;20060;-69
2021/10/14 17:59:58;;;;;;;8.38;6.18;;;;;;;;;;6239270;28;20787;-66
2021/10/14 18:03:05;;;;;;;7.30;5.75;;;;;;;;;;6225137;28;20050;-67
2021/10/14 18:06:17;;;;;;;9.80;6.50;;;;;;;;;;6232095;28;20377;-67
2021/10/14 18:39:14;;;;;;;14.70;8.18;;;;;;;;;;6238961;28;20076;-71
2021/10/14 18:42:17;;;;;;;14.60;7.88;;;;;;;;;;6230265;28;20053;-68
2021/10/14 18:45:19;;;;;;;14.68;7.80;;;;;;;;;;6229966;28;20049;-69
2021/10/14 18:48:24;;;;;;;12.90;7.15;;;;;;;;;;6225549;28;20042;-69
2021/10/14 18:51:25;;;;;;;12.40;6.63;;;;;;;;;;6222581;28;20383;-71
2021/10/14 18:54:27;;;;;;;11.68;6.70;;;;;;;;;;6241398;28;20426;-70